Arcadia, Florida
Current Conditions -  °F | °C
As of 2:53 AM on Friday 24 Oct 2014 (Local Time) from KPGD Reporting Station
Clear Clear  
Wind Chill: 65°   Ceiling: Unl
Heat Index: 65°   Visibility: 10mi
Dew Point: 56°   Wind: 8mph
Humidity: 73%   Direction: 40°NE
Pressure: 29.94"   Gusts: NA
Location:  27.22°N, 81.86°W
Report Text: KPGD 240653Z AUTO 04007KT 10SM CLR 18/13 A2994 RMK AO2 SLP140 T01830133
Loading
Personal Weather Stations






























Interactive Weather Map
Tropical Storm Tracking
New forecast layout! Learn more

10-Day Weather Forecast

Advertisements
Track Severe Weather on mobile